EIKY/KIR METAR and TAF weather

Enter ICAO airport designator
Station Type Date Time Source
EIKY METAR 2019/10/15 18:30 UTC NOAA

EIKY 151830Z 18010KT 9999 -RA FEW015 BKN037 14/12 Q0992


Station Type Date Time Source
EIKY Decoded METAR 2019/10/15 18:30 UTC NOAA

Station name not available
Oct 15, 2019 - 02:30 PM EDT / 2019.10.15 1830 UTC
Wind: from the S (180 degrees) at 12 MPH (10 KT):0
Visibility: greater than 7 mile(s):0
Sky conditions: mostly cloudy
Weather: light rain
Temperature: 57 F (14 C)
Dew Point: 53 F (12 C)
Relative Humidity: 87%
Pressure (altimeter): 29.29 in. Hg (0992 hPa)
ob: EIKY 151830Z 18010KT 9999 -RA FEW015 BKN037 14/12 Q0992
cycle: 18

Station Type Date Time Source
EIKY TAF UTC NOAA

Error!

Example: see airport list